createdAt,value
2018-11-12T00:01:20.132Z,99578.47
2018-11-12T00:03:48.997Z,99570.64
2018-11-12T00:06:17.772Z,99565.81
2018-11-12T00:08:46.497Z,99564.12
2018-11-12T00:11:15.191Z,99557.11
2018-11-12T00:13:44.021Z,99553.70
2018-11-12T00:16:12.740Z,99551.93
2018-11-12T00:18:41.414Z,99550.56
2018-11-12T00:21:10.088Z,99568.12
2018-11-12T00:23:38.832Z,99570.75
2018-11-12T00:26:07.687Z,99565.00
2018-11-12T00:28:36.464Z,99502.36
2018-11-12T00:31:05.269Z,99565.84
2018-11-12T00:33:34.071Z,99574.53
2018-11-12T00:36:02.976Z,99585.00
2018-11-12T00:38:31.750Z,99589.35
2018-11-12T00:41:00.764Z,99589.30
2018-11-12T00:43:29.606Z,99595.77
2018-11-12T00:45:58.326Z,99606.23
2018-11-12T00:48:27.036Z,99614.45
2018-11-12T00:50:55.794Z,99620.95
2018-11-12T00:53:24.579Z,99612.19
2018-11-12T00:55:53.365Z,99614.71
2018-11-12T00:58:22.173Z,99608.08
2018-11-12T01:00:50.915Z,99605.86
2018-11-12T01:03:19.618Z,99593.99
2018-11-12T01:05:48.360Z,99590.02
2018-11-12T01:08:17.037Z,99599.23
2018-11-12T01:10:45.822Z,99605.39
2018-11-12T01:13:14.566Z,99613.72
2018-11-12T01:15:43.437Z,99625.05
2018-11-12T01:18:12.093Z,99636.78
2018-11-12T01:20:40.870Z,99634.94
2018-11-12T01:23:09.737Z,99637.57
2018-11-12T01:25:38.442Z,99637.10
2018-11-12T01:28:07.089Z,99632.31
2018-11-12T01:30:35.779Z,99627.89
2018-11-12T01:33:04.459Z,99630.11
2018-11-12T01:35:33.286Z,99625.05
2018-11-12T01:38:02.025Z,99611.20
2018-11-12T01:40:30.656Z,99610.92
2018-11-12T01:42:59.632Z,99624.95
2018-11-12T01:45:28.338Z,99628.00
2018-11-12T01:47:57.117Z,99634.59
2018-11-12T01:50:25.766Z,99633.23
2018-11-12T01:52:54.464Z,99633.23
2018-11-12T01:55:23.078Z,99618.89
2018-11-12T01:57:51.757Z,99617.14
2018-11-12T02:00:21.673Z,99618.08
2018-11-12T02:02:51.444Z,99614.54
2018-11-12T02:05:20.552Z,99599.80
2018-11-12T02:07:49.268Z,99597.16
2018-11-12T02:10:18.781Z,99597.24
2018-11-12T02:12:47.430Z,99592.81
2018-11-12T02:15:18.261Z,99594.14
2018-11-12T02:17:47.629Z,99587.16
2018-11-12T02:20:17.596Z,99577.52
2018-11-12T02:22:47.210Z,99587.14
2018-11-12T02:25:16.417Z,99583.19
2018-11-12T02:27:45.136Z,99587.98
2018-11-12T02:30:17.052Z,99588.45
2018-11-12T02:32:45.745Z,99593.33
2018-11-12T02:35:14.566Z,99591.93
2018-11-12T02:37:43.303Z,99584.94
2018-11-12T02:40:13.089Z,99598.04
2018-11-12T02:42:42.540Z,99605.63
2018-11-12T02:45:12.702Z,99592.42
2018-11-12T02:47:42.993Z,99589.73
2018-11-12T02:50:14.133Z,99592.83
2018-11-12T02:52:43.379Z,99619.11
2018-11-12T02:55:14.641Z,99598.04
2018-11-12T02:57:44.783Z,99599.36
2018-11-12T03:00:17.841Z,99600.70
2018-11-12T03:02:46.457Z,99590.26
2018-11-12T03:05:15.381Z,99597.29
2018-11-12T03:07:44.006Z,99593.41
2018-11-12T03:10:18.192Z,99600.88
2018-11-12T03:12:46.679Z,99600.00
2018-11-12T03:15:16.221Z,99588.58
2018-11-12T03:17:45.515Z,99593.33
2018-11-12T03:20:16.379Z,99605.73
2018-11-12T03:22:44.925Z,99602.71
2018-11-12T03:25:14.509Z,99607.06
2018-11-12T03:27:43.797Z,99593.09
2018-11-12T03:30:13.679Z,99591.80
2018-11-12T03:32:42.629Z,99580.41
2018-11-12T03:35:12.011Z,99585.34
2018-11-12T03:37:41.560Z,99586.23
2018-11-12T03:40:11.916Z,99571.34
2018-11-12T03:42:40.493Z,99562.60
2018-11-12T03:45:11.567Z,99571.80
2018-11-12T03:47:40.161Z,99574.41
2018-11-12T03:50:12.414Z,99577.86
2018-11-12T03:52:41.534Z,99575.20
2018-11-12T03:55:11.590Z,99571.75
2018-11-12T03:57:40.099Z,99510.21
2018-11-12T04:00:13.231Z,99558.83
2018-11-12T04:02:42.032Z,99564.89
2018-11-12T04:05:10.640Z,99573.60
2018-11-12T04:07:39.927Z,99575.73
2018-11-12T04:10:10.850Z,99560.38
2018-11-12T04:12:39.350Z,99550.64
2018-11-12T04:15:09.826Z,99565.91
2018-11-12T04:17:38.347Z,99580.76
2018-11-12T04:20:07.944Z,99592.02
2018-11-12T04:22:36.676Z,99589.34
2018-11-12T04:25:06.612Z,99563.44
2018-11-12T04:27:35.239Z,99547.66
2018-11-12T04:30:03.722Z,99560.81
2018-11-12T04:32:32.199Z,99574.87
2018-11-12T04:35:00.633Z,99571.83
2018-11-12T04:37:29.074Z,99568.42
2018-11-12T04:39:57.591Z,99558.17
2018-11-12T04:42:26.055Z,99565.19
2018-11-12T04:44:54.546Z,99580.45
2018-11-12T04:47:23.117Z,99579.09
2018-11-12T04:49:51.658Z,99543.89
2018-11-12T04:52:20.231Z,99537.31
2018-11-12T04:54:48.806Z,99535.59
2018-11-12T04:57:17.363Z,99544.33
2018-11-12T04:59:45.870Z,99531.64
2018-11-12T05:02:14.341Z,99530.41
2018-11-12T05:04:42.866Z,99532.19
2018-11-12T05:07:11.244Z,99547.86
2018-11-12T05:09:39.796Z,99563.19
2018-11-12T05:12:08.357Z,99559.65
2018-11-12T05:14:36.860Z,99545.53
2018-11-12T05:17:05.417Z,99544.69
2018-11-12T05:19:34.015Z,99543.75
2018-11-12T05:22:02.706Z,99545.38
2018-11-12T05:24:31.379Z,99538.80
2018-11-12T05:26:59.995Z,99531.77
2018-11-12T05:29:28.625Z,99535.30
2018-11-12T05:31:57.210Z,99538.72
2018-11-12T05:34:25.841Z,99546.06
2018-11-12T05:36:54.395Z,99558.25
2018-11-12T05:39:22.943Z,99560.88
2018-11-12T05:41:51.583Z,99548.72
2018-11-12T05:44:20.168Z,99545.88
2018-11-12T05:46:48.693Z,99547.61
2018-11-12T05:49:17.325Z,99549.95
2018-11-12T05:51:45.958Z,99542.25
2018-11-12T05:54:14.694Z,99541.90
2018-11-12T05:56:43.253Z,99541.11
2018-11-12T05:59:11.852Z,99545.11
2018-11-12T06:01:40.439Z,99539.84
2018-11-12T06:04:09.087Z,99525.38
2018-11-12T06:06:37.705Z,99520.17
2018-11-12T06:09:08.849Z,99521.98
2018-11-12T06:11:37.544Z,99525.11
2018-11-12T06:14:06.616Z,99527.74
2018-11-12T06:16:35.286Z,99531.28
2018-11-12T06:19:10.378Z,99542.20
2018-11-12T06:21:39.130Z,99543.50
2018-11-12T06:24:07.772Z,99543.91
2018-11-12T06:26:36.293Z,99540.27
2018-11-12T06:29:04.870Z,99541.19
2018-11-12T06:31:33.532Z,99544.67
2018-11-12T06:34:02.243Z,99542.89
2018-11-12T06:36:30.868Z,99545.58
2018-11-12T06:38:59.504Z,99545.03
2018-11-12T06:41:28.337Z,99535.70
2018-11-12T06:43:57.051Z,99539.56
2018-11-12T06:46:25.700Z,99543.02
2018-11-12T06:48:54.305Z,99539.04
2018-11-12T06:51:23.022Z,99540.65
2018-11-12T06:53:51.631Z,99535.80
2018-11-12T06:56:20.525Z,99533.05
2018-11-12T06:58:49.129Z,99534.22
2018-11-12T07:01:17.730Z,99534.97
2018-11-12T07:03:46.392Z,99526.14
2018-11-12T07:06:15.124Z,99523.47
2018-11-12T07:08:43.763Z,99515.95
2018-11-12T07:11:12.397Z,99525.11
2018-11-12T07:13:40.936Z,99526.36
2018-11-12T07:16:09.545Z,99526.30
2018-11-12T07:18:38.206Z,99530.59
2018-11-12T07:21:06.846Z,99518.25
2018-11-12T07:23:35.459Z,99519.03
2018-11-12T07:26:04.191Z,99519.84
2018-11-12T07:28:32.991Z,99510.59
2018-11-12T07:31:01.754Z,99509.19
2018-11-12T07:33:30.444Z,99496.80
2018-11-12T07:35:59.221Z,99501.47
2018-11-12T07:38:27.938Z,99500.48
2018-11-12T07:40:56.625Z,99491.98
2018-11-12T07:43:25.420Z,99487.36
2018-11-12T07:45:54.216Z,99493.23
2018-11-12T07:48:22.973Z,99488.61
2018-11-12T07:50:51.609Z,99477.82
2018-11-12T07:53:20.473Z,99480.21
2018-11-12T07:55:49.261Z,99484.94
2018-11-12T07:58:17.896Z,99488.08
2018-11-12T08:00:46.692Z,99487.20
2018-11-12T08:03:15.625Z,99485.99
2018-11-12T08:05:44.212Z,99491.27
2018-11-12T08:08:12.879Z,99485.11
2018-11-12T08:10:41.399Z,99479.00
2018-11-12T08:13:09.919Z,99487.31
2018-11-12T08:15:38.514Z,99489.06
2018-11-12T08:18:07.287Z,99488.33
2018-11-12T08:20:35.894Z,99479.50
2018-11-12T08:23:04.541Z,99476.80
2018-11-12T08:25:33.168Z,99482.41
2018-11-12T08:28:01.738Z,99480.98
2018-11-12T08:30:31.287Z,99466.38
2018-11-12T08:33:01.001Z,99467.30
2018-11-12T08:35:29.883Z,99465.06
2018-11-12T08:37:58.984Z,99454.59
2018-11-12T08:40:29.004Z,99443.97
2018-11-12T08:42:57.552Z,99443.56
2018-11-12T08:45:26.227Z,99439.57
2018-11-12T08:47:56.642Z,99433.90
2018-11-12T08:50:26.838Z,99426.32
2018-11-12T08:52:56.544Z,99438.66
2018-11-12T08:55:27.473Z,99438.29
2018-11-12T08:57:57.722Z,99447.47
2018-11-12T09:00:27.063Z,99438.16
2018-11-12T09:02:55.531Z,99435.21
2018-11-12T09:05:25.299Z,99439.06
2018-11-12T09:07:55.404Z,99450.63
2018-11-12T09:10:26.647Z,99453.61
2018-11-12T09:12:55.280Z,99450.05
2018-11-12T09:15:23.937Z,99458.48
2018-11-12T09:17:52.502Z,99451.36
2018-11-12T09:20:23.209Z,99464.41
2018-11-12T09:22:51.755Z,99455.22
2018-11-12T09:25:21.596Z,99464.25
2018-11-12T09:27:50.220Z,99468.31
2018-11-12T09:30:20.188Z,99463.78
2018-11-12T09:32:48.865Z,99459.22
2018-11-12T09:35:18.838Z,99467.05
2018-11-12T09:37:48.641Z,99455.29
2018-11-12T09:40:20.946Z,99464.58
2018-11-12T09:42:49.514Z,99446.90
2018-11-12T09:45:18.413Z,99457.53
2018-11-12T09:47:47.320Z,99450.64
2018-11-12T09:50:18.122Z,99463.80
2018-11-12T09:52:48.067Z,99465.76
2018-11-12T09:55:17.400Z,99461.84
2018-11-12T09:57:48.604Z,99462.54
2018-11-12T10:00:18.626Z,99464.17
2018-11-12T10:02:48.718Z,99451.44
2018-11-12T10:05:18.198Z,99440.34
2018-11-12T10:07:48.590Z,99461.00
2018-11-12T10:10:56.155Z,99456.49
2018-11-12T10:13:26.216Z,99459.78
2018-11-12T10:15:55.047Z,99453.24
2018-11-12T10:18:21.365Z,99456.49
2018-11-12T10:20:50.036Z,99447.64
2018-11-12T10:23:19.041Z,99464.62
2018-11-12T10:25:47.664Z,99466.34
2018-11-12T10:28:16.726Z,99476.36
2018-11-12T10:30:45.296Z,99482.21
2018-11-12T10:33:13.813Z,99469.89
2018-11-12T10:35:42.432Z,99482.81
2018-11-12T10:38:11.188Z,99481.66
2018-11-12T10:40:39.845Z,99475.59
2018-11-12T10:43:08.416Z,99468.35
2018-11-12T10:45:36.981Z,99464.74
2018-11-12T10:48:06.015Z,99454.84
2018-11-12T10:50:34.572Z,99466.52
2018-11-12T10:53:03.181Z,99457.75
2018-11-12T10:55:32.069Z,99471.52
2018-11-12T10:58:00.638Z,99460.20
2018-11-12T11:00:37.088Z,99452.40
2018-11-12T11:03:13.025Z,99457.27
2018-11-12T11:05:42.872Z,99470.47
2018-11-12T11:08:11.855Z,99472.39
2018-11-12T11:10:40.506Z,99464.88
2018-11-12T11:13:09.391Z,99469.38
2018-11-12T11:15:38.600Z,99464.93
2018-11-12T11:18:07.517Z,99476.80
2018-11-12T11:20:36.192Z,99500.69
2018-11-12T11:23:04.825Z,99495.86
2018-11-12T11:25:33.714Z,99493.47
2018-11-12T11:28:02.751Z,99496.02
2018-11-12T11:30:31.383Z,99493.12
2018-11-12T11:33:00.277Z,99492.03
2018-11-12T11:35:29.170Z,99482.87
2018-11-12T11:37:57.793Z,99495.16
2018-11-12T11:40:27.311Z,99463.16
2018-11-12T11:42:55.911Z,99477.44
2018-11-12T11:45:24.662Z,99482.89
2018-11-12T11:47:53.792Z,99472.48
2018-11-12T11:50:23.778Z,99463.48
2018-11-12T11:52:52.357Z,99462.55
2018-11-12T11:55:22.173Z,99468.61
2018-11-12T11:57:51.055Z,99471.66
2018-11-12T12:00:22.938Z,99451.63
2018-11-12T12:02:52.473Z,99459.05
2018-11-12T12:05:21.924Z,99462.13
2018-11-12T12:07:51.147Z,99461.06
2018-11-12T12:10:19.670Z,99456.23
2018-11-12T12:12:49.233Z,99462.65
2018-11-12T12:15:18.969Z,99459.49
2018-11-12T12:17:47.857Z,99477.97
2018-11-12T12:20:19.819Z,99480.52
2018-11-12T12:22:48.863Z,99480.50
2018-11-12T12:25:19.061Z,99485.45
2018-11-12T12:27:48.747Z,99474.78
2018-11-12T12:30:20.928Z,99472.33
2018-11-12T12:32:50.718Z,99473.43
2018-11-12T12:35:19.327Z,99472.68
2018-11-12T12:37:48.377Z,99472.55
2018-11-12T12:40:18.747Z,99470.27
2018-11-12T12:42:47.304Z,99477.51
2018-11-12T12:45:18.321Z,99471.25
2018-11-12T12:47:47.368Z,99473.55
2018-11-12T12:50:16.920Z,99472.30
2018-11-12T12:52:45.492Z,99438.36
2018-11-12T12:55:15.024Z,99471.94
2018-11-12T12:57:44.908Z,99465.08
2018-11-12T13:00:16.923Z,99470.05
2018-11-12T13:02:45.715Z,99477.24
2018-11-12T13:05:14.344Z,99474.50
2018-11-12T13:07:43.037Z,99465.72
2018-11-12T13:10:13.964Z,99468.03
2018-11-12T13:12:42.679Z,99485.21
2018-11-12T13:15:13.064Z,99483.94
2018-11-12T13:17:42.495Z,99503.53
2018-11-12T13:20:12.713Z,99506.80
2018-11-12T13:22:41.781Z,99528.13
2018-11-12T13:25:10.776Z,99544.86
2018-11-12T13:27:40.081Z,99565.69
2018-11-12T13:30:11.528Z,99538.91
2018-11-12T13:32:40.621Z,99551.23
2018-11-12T13:35:12.476Z,99569.42
2018-11-12T13:37:41.122Z,99574.47
2018-11-12T13:40:13.935Z,99576.08
2018-11-12T13:42:43.827Z,99570.79
2018-11-12T13:45:12.739Z,99585.20
2018-11-12T13:47:41.449Z,99585.52
2018-11-12T13:50:13.518Z,99573.91
2018-11-12T13:52:42.273Z,99588.22
2018-11-12T13:55:13.075Z,99600.31
2018-11-12T13:57:41.770Z,99610.00
2018-11-12T14:00:13.769Z,99599.26
2018-11-12T14:02:43.188Z,99595.14
2018-11-12T14:05:13.986Z,99585.88
2018-11-12T14:07:43.489Z,99595.34
2018-11-12T14:10:13.382Z,99616.39
2018-11-12T14:12:42.381Z,99613.88
2018-11-12T14:15:16.491Z,99624.67
2018-11-12T14:17:45.486Z,99518.25
2018-11-12T14:20:14.176Z,99643.06
2018-11-12T14:22:42.873Z,99617.59
2018-11-12T14:25:12.939Z,99631.17
2018-11-12T14:27:41.624Z,99630.48
2018-11-12T14:30:12.401Z,99636.89
2018-11-12T14:32:41.104Z,99632.76
2018-11-12T14:35:10.669Z,99629.05
2018-11-12T14:37:39.637Z,99629.50
2018-11-12T14:40:09.348Z,99623.45
2018-11-12T14:42:38.342Z,99634.58
2018-11-12T14:45:08.603Z,99633.48
2018-11-12T14:47:37.247Z,99571.31
2018-11-12T14:50:06.067Z,99638.34
2018-11-12T14:52:34.828Z,99645.08
2018-11-12T14:55:03.477Z,99647.90
2018-11-12T14:57:32.069Z,99651.13
2018-11-12T15:00:00.645Z,99646.35
2018-11-12T15:02:29.681Z,99648.60
2018-11-12T15:04:58.619Z,99648.60
2018-11-12T15:07:27.194Z,99659.19
2018-11-12T15:09:55.894Z,99669.77
2018-11-12T15:12:24.516Z,99672.91
2018-11-12T15:14:53.097Z,99679.64
2018-11-12T15:17:21.974Z,99679.77
2018-11-12T15:19:50.647Z,99696.65
2018-11-12T15:22:19.256Z,99701.30
2018-11-12T15:24:47.832Z,99708.57
2018-11-12T15:27:16.461Z,99714.06
2018-11-12T15:29:45.236Z,99704.13
2018-11-12T15:32:13.789Z,99709.91
2018-11-12T15:34:42.975Z,99705.30
2018-11-12T15:37:12.281Z,99709.38
2018-11-12T15:39:40.765Z,99714.38
2018-11-12T15:42:09.432Z,99722.88
2018-11-12T15:44:37.978Z,99723.88
2018-11-12T15:47:06.569Z,99727.63
2018-11-12T15:49:35.132Z,99725.50
2018-11-12T15:52:03.771Z,99728.70
2018-11-12T15:54:32.405Z,99733.19
2018-11-12T15:57:01.495Z,99730.09
2018-11-12T15:59:30.203Z,99753.00
2018-11-12T16:01:58.814Z,99758.44
2018-11-12T16:04:27.499Z,99769.62
2018-11-12T16:06:56.072Z,99768.30
2018-11-12T16:09:24.827Z,99775.39
2018-11-12T16:11:53.547Z,99764.42
2018-11-12T16:14:22.727Z,99763.61
2018-11-12T16:16:51.266Z,99772.90
2018-11-12T16:19:19.882Z,99791.05
2018-11-12T16:21:48.424Z,99661.06
2018-11-12T16:24:17.232Z,99792.66
2018-11-12T16:26:45.947Z,99801.06
2018-11-12T16:29:14.501Z,99800.73
2018-11-12T16:31:43.145Z,99807.77
2018-11-12T16:34:11.778Z,99798.13
2018-11-12T16:36:40.400Z,99622.61
2018-11-12T16:39:10.655Z,99824.27
2018-11-12T16:41:40.202Z,99826.09
2018-11-12T16:44:10.072Z,99834.93
2018-11-12T16:46:38.618Z,99842.04
2018-11-12T16:49:07.463Z,99848.67
2018-11-12T16:51:36.195Z,99850.47
2018-11-12T16:54:06.063Z,99862.02
2018-11-12T16:56:35.265Z,99868.64
2018-11-12T16:59:04.132Z,99877.14
2018-11-12T17:01:32.808Z,99878.99
2018-11-12T17:06:40.273Z,99866.91
2018-11-12T17:09:12.320Z,99862.13
2018-11-12T17:11:40.998Z,99865.27
2018-11-12T17:14:09.767Z,99885.03
2018-11-12T17:16:38.910Z,99891.16
2018-11-12T17:19:07.534Z,99898.17
2018-11-12T17:21:36.570Z,99898.23
2018-11-12T17:24:05.172Z,99893.42
2018-11-12T17:26:33.752Z,99900.14
2018-11-12T17:29:02.287Z,99924.37
2018-11-12T17:31:31.036Z,99939.80
2018-11-12T17:33:59.521Z,99944.22
2018-11-12T17:36:29.165Z,99944.72
2018-11-12T17:38:58.991Z,99924.61
2018-11-12T17:41:28.645Z,99932.97
2018-11-12T17:43:59.583Z,99930.39
2018-11-12T17:46:30.274Z,99929.92
2018-11-12T17:49:00.711Z,99939.16
2018-11-12T17:51:34.661Z,99939.16
2018-11-12T17:54:06.274Z,99940.03
2018-11-12T17:56:34.766Z,99957.25
2018-11-12T17:59:03.566Z,99965.63
2018-11-12T18:01:32.136Z,99964.75
2018-11-12T18:04:00.587Z,99971.75
2018-11-12T18:06:29.094Z,99980.58
2018-11-12T18:08:57.640Z,99985.02
2018-11-12T18:11:26.155Z,99982.87
2018-11-12T18:13:54.834Z,99993.77
2018-11-12T18:16:23.344Z,100012.24
2018-11-12T18:18:51.918Z,100007.03
2018-11-12T18:21:20.645Z,99996.94
2018-11-12T18:23:49.166Z,100007.96
2018-11-12T18:26:17.735Z,100004.12
2018-11-12T18:28:46.351Z,99994.47
2018-11-12T18:31:15.193Z,99990.05
2018-11-12T18:33:43.726Z,99998.38
2018-11-12T18:36:12.271Z,100015.11
2018-11-12T18:38:40.943Z,99997.16
2018-11-12T18:41:09.601Z,100003.43
2018-11-12T18:43:38.117Z,100005.73
2018-11-12T18:46:06.715Z,100013.70
2018-11-12T18:48:35.355Z,100016.86
2018-11-12T18:51:03.969Z,100037.16
2018-11-12T18:53:32.552Z,100049.99
2018-11-12T18:56:01.800Z,100052.73
2018-11-12T18:58:31.017Z,100062.48
2018-11-12T19:00:59.613Z,100059.84
2018-11-12T19:03:28.222Z,100065.09
2018-11-12T19:05:56.789Z,100061.13
2018-11-12T19:08:25.362Z,100053.58
2018-11-12T19:10:54.059Z,100053.55
2018-11-12T19:13:22.700Z,100036.83
2018-11-12T19:15:51.371Z,100048.20
2018-11-12T19:18:19.953Z,100051.25
2018-11-12T19:20:48.662Z,100048.16
2018-11-12T19:23:17.327Z,100041.07
2018-11-12T19:25:45.986Z,100050.71
2018-11-12T19:28:14.592Z,100065.66
2018-11-12T19:30:43.120Z,100070.98
2018-11-12T19:33:11.652Z,100069.69
2018-11-12T19:35:40.181Z,100068.38
2018-11-12T19:38:08.679Z,100064.85
2018-11-12T19:40:37.495Z,100068.34
2018-11-12T19:43:06.060Z,100065.73
2018-11-12T19:45:35.313Z,100060.02
2018-11-12T19:48:03.974Z,100062.22
2018-11-12T19:50:32.531Z,100061.75
2018-11-12T19:53:01.546Z,100061.36
2018-11-12T19:55:30.203Z,100075.05
2018-11-12T19:57:58.826Z,100089.57
2018-11-12T20:00:28.436Z,99840.81
2018-11-12T20:02:58.105Z,100088.72
2018-11-12T20:05:26.731Z,100090.04
2018-11-12T20:07:55.420Z,100085.20
2018-11-12T20:10:24.368Z,100074.23
2018-11-12T20:12:53.146Z,100076.91
2018-11-12T20:15:23.101Z,100085.28
2018-11-12T20:17:52.457Z,100087.50
2018-11-12T20:20:22.512Z,100098.88
2018-11-12T20:22:51.521Z,100101.10
2018-11-12T20:25:21.435Z,100106.83
2018-11-12T20:27:50.956Z,100102.47
2018-11-12T20:30:23.439Z,100103.34
2018-11-12T20:32:52.041Z,100103.76
2018-11-12T20:35:20.645Z,100097.66
2018-11-12T20:37:49.308Z,100102.03
2018-11-12T20:40:18.663Z,100098.15
2018-11-12T20:42:48.106Z,100095.97
2018-11-12T20:45:17.711Z,100100.05
2018-11-12T20:47:47.625Z,100098.33
2018-11-12T20:50:16.802Z,100098.82
2018-11-12T20:52:45.481Z,100101.08
2018-11-12T20:55:15.163Z,100091.44
2018-11-12T20:57:43.951Z,100080.50
2018-11-12T21:00:16.726Z,100093.73
2018-11-12T21:02:46.717Z,100102.16
2018-11-12T21:05:16.001Z,100106.59
2018-11-12T21:07:44.757Z,100107.03
2018-11-12T21:10:16.348Z,100109.23
2018-11-12T21:12:45.389Z,100101.87
2018-11-12T21:15:18.444Z,100110.73
2018-11-12T21:17:47.103Z,100119.98
2018-11-12T21:20:18.107Z,100116.09
2018-11-12T21:22:46.759Z,100116.50
2018-11-12T21:25:16.695Z,100114.30
2018-11-12T21:27:45.375Z,100121.38
2018-11-12T21:30:22.419Z,100121.87
2018-11-12T21:32:50.956Z,100132.09
2018-11-12T21:35:19.573Z,100134.30
2018-11-12T21:37:48.668Z,100050.52
2018-11-12T21:40:21.941Z,100129.92
2018-11-12T21:42:50.499Z,100125.98
2018-11-12T21:45:20.682Z,100114.56
2018-11-12T21:47:49.249Z,100119.91
2018-11-12T21:50:19.082Z,100120.81
2018-11-12T21:52:47.660Z,100123.02
2018-11-12T21:55:16.185Z,100124.77
2018-11-12T21:57:46.049Z,100129.14
2018-11-12T22:00:25.596Z,100138.83
2018-11-12T22:02:56.664Z,100148.89
2018-11-12T22:05:25.640Z,100145.02
2018-11-12T22:07:54.592Z,100140.66
2018-11-12T22:10:23.210Z,100146.83
2018-11-12T22:12:52.564Z,100140.26
2018-11-12T22:15:21.229Z,100143.87
2018-11-12T22:17:49.866Z,100140.42
2018-11-12T22:20:19.744Z,100142.62
2018-11-12T22:22:48.343Z,100144.42
2018-11-12T22:25:19.686Z,100148.80
2018-11-12T22:27:49.446Z,100143.16
2018-11-12T22:30:20.309Z,100136.19
2018-11-12T22:32:51.510Z,100152.07
2018-11-12T22:35:20.193Z,100161.30
2018-11-12T22:37:48.917Z,100167.05
2018-11-12T22:40:18.239Z,100170.56
2018-11-12T22:42:48.319Z,100174.09
2018-11-12T22:45:18.234Z,100171.04
2018-11-12T22:47:47.843Z,100178.05
2018-11-12T22:50:16.395Z,100178.05
2018-11-12T22:52:45.415Z,100177.64
2018-11-12T22:55:14.974Z,100185.59
2018-11-12T22:57:43.532Z,100185.59
2018-11-12T23:00:22.243Z,100180.76
2018-11-12T23:02:51.130Z,100167.16
2018-11-12T23:05:21.985Z,100173.74
2018-11-12T23:07:51.004Z,100176.37
2018-11-12T23:10:20.025Z,100178.55
2018-11-12T23:12:48.624Z,100185.62
2018-11-12T23:15:17.841Z,100183.88
2018-11-12T23:17:46.366Z,100189.16
2018-11-12T23:20:22.175Z,100186.57
2018-11-12T23:22:51.214Z,100183.52
2018-11-12T23:25:19.792Z,100175.22
2018-11-12T23:27:49.214Z,100176.10
2018-11-12T23:30:19.283Z,100178.73
2018-11-12T23:32:47.830Z,100183.13
2018-11-12T23:35:17.891Z,100175.23
2018-11-12T23:37:46.971Z,100181.39
2018-11-12T23:40:17.572Z,100178.30
2018-11-12T23:42:46.623Z,100166.94
2018-11-12T23:45:15.232Z,100162.53
2018-11-12T23:47:43.739Z,100150.69
2018-11-12T23:50:16.026Z,100145.42
2018-11-12T23:52:45.286Z,100167.79
2018-11-12T23:55:14.105Z,100168.69
2018-11-12T23:57:42.739Z,100182.27
